Time;durP1;ratioP1;P1;durP2;ratioP2;P2;SDS_P1;SDS_P2;PMS_P1;PMS_P2;Temp;Humidity;BMP_temperature;BMP_pressure;BME280_temperature;BME280_humidity;BME280_pressure;Samples;Min_cycle;Max_cycle;Signal;HPM_P1;HPM_P2
2023/06/06 00:00:30;;;;;;;;;;;;;;;14.52;69.87;92788.31;2058617;69;20119;-75
2023/06/06 00:02:56;;;;;;;;;;;;;;;14.51;69.54;92784.03;2072073;69;20056;-75
2023/06/06 00:05:25;;;;;;;;;;;;;;;14.31;70.26;92784.50;2059153;69;20058;-75
2023/06/06 00:07:52;;;;;;;;;;;;;;;14.39;69.86;92782.06;2059030;69;20061;-75
2023/06/06 00:10:17;;;;;;;;;;;;;;;14.39;69.72;92784.19;2059096;69;20082;-76
2023/06/06 00:12:44;;;;;;;;;;;;;;;14.43;70.01;92778.69;2059217;69;20050;-76
2023/06/06 00:15:10;;;;;;;;;;;;;;;14.34;70.79;92783.25;2071993;69;20458;-75
2023/06/06 00:17:38;;;;;;;;;;;;;;;14.27;70.97;92775.81;2072035;69;20054;-76
2023/06/06 00:20:06;;;;;;;;;;;;;;;14.28;70.75;92774.44;2059057;69;20501;-76
2023/06/06 00:22:35;;;;;;;;;;;;;;;14.21;70.99;92770.59;2059137;69;20054;-75
2023/06/06 00:25:00;;;;;;;;;;;;;;;14.23;70.70;92773.50;2059634;69;20110;-76
2023/06/06 00:27:25;;;;;;;;;;;;;;;14.21;70.47;92781.91;2059701;69;20058;-76
2023/06/06 00:29:51;;;;;;;;;;;;;;;14.14;70.99;92779.41;2059185;69;20053;-76
2023/06/06 00:32:18;;;;;;;;;;;;;;;14.06;71.47;92779.00;2072399;69;20097;-76
2023/06/06 00:34:45;;;;;;;;;;;;;;;14.10;70.92;92779.94;2071959;69;20107;-75
2023/06/06 00:37:12;;;;;;;;;;;;;;;14.08;70.14;92779.13;2059452;69;20107;-75
2023/06/06 00:39:38;;;;;;;;;;;;;;;14.06;69.99;92785.41;2072838;69;20081;-75
2023/06/06 00:42:03;;;;;;;;;;;;;;;14.02;71.15;92778.81;2073020;69;20089;-74
2023/06/06 00:44:29;;;;;;;;;;;;;;;13.98;71.31;92782.19;2059503;69;20077;-76
2023/06/06 00:46:56;;;;;;;;;;;;;;;13.88;70.34;92776.78;2073045;69;20077;-76
2023/06/06 00:49:26;;;;;;;;;;;;;;;13.93;70.11;92783.38;2059726;69;20066;-75
2023/06/06 00:51:53;;;;;;;;;;;;;;;14.01;69.94;92783.00;2059625;69;20050;-75
2023/06/06 00:54:19;;;;;;;;;;;;;;;13.86;70.37;92790.06;2059706;69;20057;-74
2023/06/06 00:56:47;;;;;;;;;;;;;;;13.71;71.19;92780.16;2052260;69;20057;-75
2023/06/06 00:59:13;;;;;;;;;;;;;;;13.75;72.29;92782.44;2053172;69;20054;-75
2023/06/06 01:01:39;;;;;;;;;;;;;;;13.81;71.29;92788.41;2052975;70;20401;-76
2023/06/06 01:04:10;;;;;;;;;;;;;;;13.81;71.35;92786.31;2053216;69;20059;-75
2023/06/06 01:06:37;;;;;;;;;;;;;;;13.73;71.79;92789.44;2052640;70;20050;-75
2023/06/06 01:09:06;;;;;;;;;;;;;;;13.75;71.82;92783.19;2053181;69;20458;-76
2023/06/06 01:11:45;;;;;;;;;;;;;;;13.68;72.01;92784.22;2052587;70;20118;-75
2023/06/06 01:14:34;;;;;;;;;;;;;;;13.77;71.50;92786.09;2053021;69;20043;-76
2023/06/06 01:17:03;;;;;;;;;;;;;;;13.56;71.89;92790.00;2053047;70;20515;-75
2023/06/06 01:19:32;;;;;;;;;;;;;;;13.61;71.46;92779.63;2052269;70;20474;-74
2023/06/06 01:21:59;;;;;;;;;;;;;;;13.62;71.75;92787.47;2052603;70;20508;-75
2023/06/06 01:24:27;;;;;;;;;;;;;;;13.67;71.37;92786.31;2052790;70;20086;-75
2023/06/06 01:26:55;;;;;;;;;;;;;;;13.62;70.48;92783.94;2052628;70;20087;-75
2023/06/06 01:29:21;;;;;;;;;;;;;;;13.47;70.90;92788.13;2052733;70;20055;-74
2023/06/06 01:31:52;;;;;;;;;;;;;;;13.56;70.75;92786.44;2052763;70;20055;-74
2023/06/06 01:34:27;;;;;;;;;;;;;;;13.51;71.21;92793.25;2053237;70;20524;-75
2023/06/06 01:37:10;;;;;;;;;;;;;;;13.59;69.85;92788.72;2052960;69;20485;-76
2023/06/06 01:39:38;;;;;;;;;;;;;;;13.45;70.25;92788.00;2052906;69;20055;-76
2023/06/06 01:42:05;;;;;;;;;;;;;;;13.64;69.46;92781.19;2052444;70;20050;-75
2023/06/06 01:44:37;;;;;;;;;;;;;;;13.35;70.89;92782.56;2052781;70;20413;-75
2023/06/06 01:47:04;;;;;;;;;;;;;;;13.46;70.55;92787.38;2052477;70;20065;-76
2023/06/06 01:49:30;;;;;;;;;;;;;;;13.54;70.52;92784.22;2052570;70;20082;-76
2023/06/06 01:51:56;;;;;;;;;;;;;;;13.54;70.06;92783.50;2052602;70;20055;-76
2023/06/06 01:54:22;;;;;;;;;;;;;;;13.43;71.07;92791.47;2053106;69;20576;-76
2023/06/06 01:56:49;;;;;;;;;;;;;;;13.49;70.90;92788.22;2052272;69;20216;-75
2023/06/06 01:59:14;;;;;;;;;;;;;;;13.41;71.19;92784.97;2052191;70;20055;-76
2023/06/06 02:01:40;;;;;;;;;;;;;;;13.29;70.71;92787.91;2052205;70;20051;-76
2023/06/06 02:04:05;;;;;;;;;;;;;;;13.33;70.15;92788.13;2053042;70;20505;-75
2023/06/06 02:06:32;;;;;;;;;;;;;;;13.43;69.76;92787.91;2053309;70;20080;-76
2023/06/06 02:08:58;;;;;;;;;;;;;;;13.40;70.53;92789.91;2052701;70;20042;-75
2023/06/06 02:11:23;;;;;;;;;;;;;;;13.39;70.70;92799.75;2052631;70;20046;-76
2023/06/06 02:13:50;;;;;;;;;;;;;;;13.32;69.99;92797.94;2053133;70;20565;-74
2023/06/06 02:16:17;;;;;;;;;;;;;;;13.41;69.65;92799.84;2049828;70;20054;-75
2023/06/06 02:18:44;;;;;;;;;;;;;;;13.34;69.60;92792.41;2052522;70;20075;-75
2023/06/06 02:21:11;;;;;;;;;;;;;;;13.38;69.63;92795.47;2052697;70;20082;-75
2023/06/06 02:23:38;;;;;;;;;;;;;;;13.40;70.30;92794.81;2052623;70;20058;-75
2023/06/06 02:26:04;;;;;;;;;;;;;;;13.20;70.81;92800.13;2052700;70;20050;-74
2023/06/06 02:28:30;;;;;;;;;;;;;;;13.27;70.25;92795.53;2053070;70;20057;-75
2023/06/06 02:30:56;;;;;;;;;;;;;;;13.27;70.13;92804.75;2052433;70;20058;-75
2023/06/06 02:33:22;;;;;;;;;;;;;;;13.20;70.44;92806.50;2052472;70;20466;-76
2023/06/06 02:35:49;;;;;;;;;;;;;;;13.08;71.41;92803.03;2052378;70;20422;-76
2023/06/06 02:38:15;;;;;;;;;;;;;;;13.03;71.21;92804.19;2052560;70;20047;-74
2023/06/06 02:40:41;;;;;;;;;;;;;;;13.18;69.82;92803.56;2053088;69;20050;-75
2023/06/06 02:43:06;;;;;;;;;;;;;;;13.15;70.19;92812.59;2052562;70;20082;-75
2023/06/06 02:45:32;;;;;;;;;;;;;;;12.98;70.38;92803.22;2052232;70;20060;-76
2023/06/06 02:47:57;;;;;;;;;;;;;;;12.87;70.26;92800.47;2052511;70;20057;-76
2023/06/06 02:50:23;;;;;;;;;;;;;;;13.12;69.90;92808.91;2052318;70;20478;-76
2023/06/06 02:52:49;;;;;;;;;;;;;;;13.23;69.29;92801.72;2052476;70;20067;-75
2023/06/06 02:55:15;;;;;;;;;;;;;;;13.11;69.19;92801.06;2052533;69;20042;-75
2023/06/06 02:57:41;;;;;;;;;;;;;;;13.11;69.93;92804.63;2052504;70;20058;-75
2023/06/06 03:00:08;;;;;;;;;;;;;;;13.07;69.64;92803.66;2051927;70;20491;-75
2023/06/06 03:02:33;;;;;;;;;;;;;;;12.97;70.90;92810.25;2053034;70;20022;-76
2023/06/06 03:04:59;;;;;;;;;;;;;;;12.96;70.61;92810.84;2053026;70;20074;-75
2023/06/06 03:07:26;;;;;;;;;;;;;;;12.91;71.12;92812.00;2052989;69;20051;-75
2023/06/06 03:09:52;;;;;;;;;;;;;;;12.91;70.65;92807.06;2052962;69;20075;-76
2023/06/06 03:12:24;;;;;;;;;;;;;;;12.91;71.06;92803.53;2053078;70;20058;-75
2023/06/06 03:14:51;;;;;;;;;;;;;;;12.90;70.38;92808.44;2051963;70;20078;-76
2023/06/06 03:17:18;;;;;;;;;;;;;;;12.90;70.42;92808.44;2052923;69;20453;-76
2023/06/06 03:19:48;;;;;;;;;;;;;;;12.88;70.78;92805.53;2052763;69;20082;-75
2023/06/06 03:22:36;;;;;;;;;;;;;;;12.88;70.25;92805.53;2052491;69;20050;-76
2023/06/06 03:25:02;;;;;;;;;;;;;;;12.80;71.19;92810.00;2052233;70;20043;-76
2023/06/06 03:27:27;;;;;;;;;;;;;;;12.81;69.98;92806.53;2052772;69;20054;-75
2023/06/06 03:29:54;;;;;;;;;;;;;;;12.71;69.69;92800.34;2052254;70;20461;-75
2023/06/06 03:32:23;;;;;;;;;;;;;;;12.71;70.32;92803.16;2052115;70;20146;-76
2023/06/06 03:34:48;;;;;;;;;;;;;;;12.68;70.15;92805.13;2052555;70;20161;-75
2023/06/06 03:37:14;;;;;;;;;;;;;;;12.72;70.80;92805.38;2052385;70;20137;-74
2023/06/06 03:39:42;;;;;;;;;;;;;;;12.83;70.19;92803.06;2052670;70;20047;-75
2023/06/06 03:42:10;;;;;;;;;;;;;;;12.81;70.00;92808.63;2052895;70;20554;-75
2023/06/06 03:44:36;;;;;;;;;;;;;;;12.90;69.68;92814.09;2052915;70;20059;-75
2023/06/06 03:47:03;;;;;;;;;;;;;;;12.76;70.39;92807.69;2052039;70;20050;-75
2023/06/06 03:52:58;;;;;;;;;;;;;;;12.68;70.22;92810.78;2053244;70;20086;-75
2023/06/06 03:55:25;;;;;;;;;;;;;;;12.66;70.52;92813.50;2055195;69;20053;-75
2023/06/06 03:57:52;;;;;;;;;;;;;;;12.71;70.86;92815.19;2072652;69;20046;-76
2023/06/06 04:00:18;;;;;;;;;;;;;;;12.76;70.05;92818.25;2059737;69;20061;-76
2023/06/06 04:02:46;;;;;;;;;;;;;;;12.72;70.08;92816.66;2059150;69;20046;-76
2023/06/06 04:05:12;;;;;;;;;;;;;;;12.77;69.46;92823.25;2059362;69;20435;-76
2023/06/06 04:07:39;;;;;;;;;;;;;;;12.88;68.90;92813.28;2072744;69;20146;-76
2023/06/06 04:10:05;;;;;;;;;;;;;;;12.89;69.52;92809.81;2072451;69;20432;-77
2023/06/06 04:12:30;;;;;;;;;;;;;;;12.68;69.71;92810.06;2073021;69;20489;-77
2023/06/06 04:14:56;;;;;;;;;;;;;;;12.83;69.94;92808.72;2072701;69;20476;-75
2023/06/06 04:17:22;;;;;;;;;;;;;;;12.86;69.32;92813.88;2073043;69;20050;-75
2023/06/06 04:19:47;;;;;;;;;;;;;;;12.89;68.86;92806.25;2059716;69;20049;-75
2023/06/06 04:22:17;;;;;;;;;;;;;;;12.88;68.82;92811.16;2072972;69;20119;-75
2023/06/06 04:24:43;;;;;;;;;;;;;;;12.81;69.22;92817.09;2060006;69;20054;-74
2023/06/06 04:27:11;;;;;;;;;;;;;;;12.74;69.91;92821.69;2072865;69;20046;-75
2023/06/06 04:29:41;;;;;;;;;;;;;;;12.84;68.44;92819.44;2060392;69;20053;-75
2023/06/06 04:32:09;;;;;;;;;;;;;;;12.91;67.94;92821.22;2072972;69;20042;-75
2023/06/06 04:34:39;;;;;;;;;;;;;;;12.92;68.17;92822.69;2059606;69;20484;-76
2023/06/06 04:37:07;;;;;;;;;;;;;;;13.00;68.53;92830.84;2072740;69;20076;-75
2023/06/06 04:39:34;;;;;;;;;;;;;;;13.03;68.99;92821.13;2072551;69;20043;-76
2023/06/06 04:42:04;;;;;;;;;;;;;;;12.93;68.57;92814.94;2072937;69;20054;-74
2023/06/06 04:44:41;;;;;;;;;;;;;;;12.80;68.51;92821.28;2070163;69;20096;-75
2023/06/06 04:47:10;;;;;;;;;;;;;;;12.94;68.08;92824.88;2072916;69;20050;-76
2023/06/06 04:49:38;;;;;;;;;;;;;;;12.92;68.88;92821.94;2072972;69;20086;-76
2023/06/06 04:52:05;;;;;;;;;;;;;;;13.04;67.56;92819.03;2072900;69;20061;-76
2023/06/06 04:54:31;;;;;;;;;;;;;;;13.10;67.42;92822.19;2073094;69;20054;-78
2023/06/06 04:56:57;;;;;;;;;;;;;;;13.01;68.11;92829.50;2060065;69;20431;-76
2023/06/06 04:59:22;;;;;;;;;;;;;;;13.03;68.00;92829.63;2059376;69;20090;-75
2023/06/06 05:01:51;;;;;;;;;;;;;;;13.09;68.72;92823.56;2059803;69;20123;-76
2023/06/06 05:04:18;;;;;;;;;;;;;;;13.14;68.23;92825.97;2072976;69;20053;-76
2023/06/06 05:06:44;;;;;;;;;;;;;;;13.22;67.78;92823.59;2072915;69;20224;-76
2023/06/06 05:09:10;;;;;;;;;;;;;;;13.13;67.88;92818.84;2059854;69;20062;-75
2023/06/06 05:11:37;;;;;;;;;;;;;;;13.19;68.09;92824.09;2059998;69;20518;-76
2023/06/06 05:14:03;;;;;;;;;;;;;;;13.32;67.35;92822.66;2059574;69;20516;-76
2023/06/06 05:16:28;;;;;;;;;;;;;;;13.16;69.58;92820.44;2059499;69;20137;-75
2023/06/06 05:18:54;;;;;;;;;;;;;;;13.26;69.06;92825.91;2059866;69;20512;-76
2023/06/06 05:21:20;;;;;;;;;;;;;;;13.31;69.00;92824.75;2059602;69;20070;-76
2023/06/06 05:23:45;;;;;;;;;;;;;;;13.26;69.15;92817.44;2059751;69;20074;-74
2023/06/06 05:26:11;;;;;;;;;;;;;;;13.29;69.04;92815.47;2060063;69;20057;-75
2023/06/06 05:28:37;;;;;;;;;;;;;;;13.26;68.87;92823.09;2072628;69;20053;-75
2023/06/06 05:31:02;;;;;;;;;;;;;;;13.32;68.32;92812.09;2059629;69;20054;-75
2023/06/06 05:33:30;;;;;;;;;;;;;;;13.34;69.03;92819.97;2059692;69;20050;-76
2023/06/06 05:35:56;;;;;;;;;;;;;;;13.37;69.14;92816.59;2059938;69;20049;-75
2023/06/06 05:38:21;;;;;;;;;;;;;;;13.41;68.79;92804.75;2059827;69;20053;-75
2023/06/06 05:40:47;;;;;;;;;;;;;;;13.13;68.47;92810.38;2059927;69;20089;-76
2023/06/06 05:43:13;;;;;;;;;;;;;;;13.39;68.38;92819.53;2059519;69;20084;-75
2023/06/06 05:45:39;;;;;;;;;;;;;;;13.29;69.50;92813.34;2059475;69;20494;-76
2023/06/06 05:48:04;;;;;;;;;;;;;;;13.29;69.27;92815.47;2059622;69;20062;-74
2023/06/06 05:50:30;;;;;;;;;;;;;;;13.40;68.78;92809.69;2059774;69;20065;-75
2023/06/06 05:52:56;;;;;;;;;;;;;;;13.46;68.75;92815.66;2059671;69;20045;-75
2023/06/06 05:55:28;;;;;;;;;;;;;;;13.31;67.10;92810.63;2059476;69;20085;-76
2023/06/06 05:57:53;;;;;;;;;;;;;;;13.34;67.07;92814.31;2059572;69;20054;-76
2023/06/06 06:00:19;;;;;;;;;;;;;;;13.25;67.34;92818.81;2059638;69;20046;-75
2023/06/06 06:02:47;;;;;;;;;;;;;;;13.46;67.83;92817.75;2059603;69;20130;-76
2023/06/06 06:08:41;;;;;;;;;;;;;;;13.62;67.85;92807.28;2059795;69;20133;-76
2023/06/06 06:11:07;;;;;;;;;;;;;;;13.59;68.47;92805.69;2072681;69;20049;-79
2023/06/06 06:13:33;;;;;;;;;;;;;;;13.61;67.58;92808.66;2059618;69;20054;-75
2023/06/06 06:15:58;;;;;;;;;;;;;;;13.65;68.14;92811.69;2059554;69;20130;-75
2023/06/06 06:18:24;;;;;;;;;;;;;;;13.54;67.69;92809.69;2059963;69;20053;-77
2023/06/06 06:20:49;;;;;;;;;;;;;;;13.85;68.68;92809.16;2059383;69;20551;-75
2023/06/06 06:23:15;;;;;;;;;;;;;;;14.05;68.43;92808.69;2059516;69;20057;-75
2023/06/06 06:25:44;;;;;;;;;;;;;;;13.70;68.02;92806.97;2059515;69;20054;-76
2023/06/06 06:28:22;;;;;;;;;;;;;;;13.49;68.99;92813.69;2059231;69;20104;-74
2023/06/06 06:30:48;;;;;;;;;;;;;;;13.79;68.65;92816.59;2072074;69;20128;-76
2023/06/06 06:33:13;;;;;;;;;;;;;;;14.06;68.91;92816.53;2059631;69;20479;-76
2023/06/06 06:35:41;;;;;;;;;;;;;;;14.32;68.66;92819.22;2059474;69;20053;-75
2023/06/06 06:38:07;;;;;;;;;;;;;;;14.27;68.02;92817.56;2059276;69;20089;-75
2023/06/06 06:40:32;;;;;;;;;;;;;;;14.11;68.25;92815.41;2072596;69;20057;-77
2023/06/06 06:42:58;;;;;;;;;;;;;;;14.40;67.28;92820.34;2059412;69;20042;-79
2023/06/06 06:45:35;;;;;;;;;;;;;;;14.54;67.24;92826.00;2059829;69;20404;-77
2023/06/06 06:48:02;;;;;;;;;;;;;;;14.63;68.09;92821.44;2059912;69;20123;-78
2023/06/06 06:50:27;;;;;;;;;;;;;;;14.72;67.17;92824.03;2059697;69;20494;-77
2023/06/06 06:52:56;;;;;;;;;;;;;;;14.77;68.74;92819.28;2059754;69;20050;-77
2023/06/06 06:55:23;;;;;;;;;;;;;;;14.84;68.42;92826.69;2059759;69;20118;-76
2023/06/06 06:57:50;;;;;;;;;;;;;;;14.96;68.45;92823.72;2059547;69;20122;-77
2023/06/06 07:00:18;;;;;;;;;;;;;;;15.06;68.09;92821.34;2059518;69;20084;-77
2023/06/06 07:06:12;;;;;;;;;;;;;;;15.34;66.61;92816.22;2059232;69;20436;-77
2023/06/06 07:08:39;;;;;;;;;;;;;;;15.29;69.02;92811.00;2059512;69;20069;-77
2023/06/06 07:11:05;;;;;;;;;;;;;;;15.41;68.25;92812.31;2059616;69;20072;-77
2023/06/06 07:13:31;;;;;;;;;;;;;;;15.57;67.84;92811.53;2058921;69;20477;-76
2023/06/06 07:15:56;;;;;;;;;;;;;;;15.73;67.61;92813.03;2059274;69;20115;-76
2023/06/06 07:18:24;;;;;;;;;;;;;;;15.88;67.43;92813.63;2071889;69;20038;-77
2023/06/06 07:20:51;;;;;;;;;;;;;;;15.84;65.92;92816.28;2058922;69;20070;-77
2023/06/06 07:23:16;;;;;;;;;;;;;;;16.00;67.48;92806.38;2059727;69;20128;-77
2023/06/06 07:25:42;;;;;;;;;;;;;;;16.05;63.94;92807.28;2059691;69;20054;-77
2023/06/06 07:28:10;;;;;;;;;;;;;;;16.21;62.40;92801.53;2059688;69;20078;-77
2023/06/06 07:30:35;;;;;;;;;;;;;;;16.26;61.28;92803.91;2059081;69;20556;-77
2023/06/06 07:33:01;;;;;;;;;;;;;;;16.39;61.72;92804.41;2059599;69;20160;-77
2023/06/06 07:35:32;;;;;;;;;;;;;;;16.48;64.12;92800.50;2072770;69;20090;-76
2023/06/06 07:37:58;;;;;;;;;;;;;;;16.64;64.19;92798.34;2059708;69;20081;-77
2023/06/06 07:40:25;;;;;;;;;;;;;;;16.83;64.46;92791.28;2059402;69;20046;-77
2023/06/06 07:42:54;;;;;;;;;;;;;;;16.91;64.67;92788.03;2059902;69;20062;-78
2023/06/06 07:45:19;;;;;;;;;;;;;;;16.99;62.52;92788.31;2059421;69;20045;-77
2023/06/06 07:47:46;;;;;;;;;;;;;;;17.19;64.13;92786.25;2059213;69;20054;-76
2023/06/06 07:50:11;;;;;;;;;;;;;;;17.38;64.43;92778.41;2072092;69;20464;-76
2023/06/06 07:52:43;;;;;;;;;;;;;;;17.54;63.92;92779.00;2059194;69;20050;-76
2023/06/06 07:55:11;;;;;;;;;;;;;;;17.68;59.44;92775.91;2059423;69;20062;-77
2023/06/06 07:57:40;;;;;;;;;;;;;;;17.54;55.84;92771.19;2072405;69;20054;-76
2023/06/06 08:00:12;;;;;;;;;;;;;;;17.73;57.69;92771.81;2072203;69;20085;-76
2023/06/06 08:02:39;;;;;;;;;;;;;;;18.13;56.53;92763.25;2071760;69;20053;-76
2023/06/06 08:05:06;;;;;;;;;;;;;;;18.11;56.32;92774.59;2059449;69;20485;-76
2023/06/06 08:07:41;;;;;;;;;;;;;;;18.39;53.43;92761.31;2059482;69;20053;-76
2023/06/06 08:10:07;;;;;;;;;;;;;;;18.77;54.07;92766.81;2058915;69;20050;-77
2023/06/06 08:12:32;;;;;;;;;;;;;;;18.69;51.49;92758.00;2059567;69;20057;-76
2023/06/06 08:15:01;;;;;;;;;;;;;;;19.07;52.07;92755.63;2059449;69;20581;-77
2023/06/06 08:17:26;;;;;;;;;;;;;;;19.50;49.77;92759.72;2059615;69;20058;-77
2023/06/06 08:19:51;;;;;;;;;;;;;;;20.21;50.36;92755.97;2059664;69;20116;-77
2023/06/06 08:22:19;;;;;;;;;;;;;;;20.25;50.66;92761.03;2059185;69;20099;-77
2023/06/06 08:24:44;;;;;;;;;;;;;;;20.61;50.06;92763.41;2059429;69;20251;-77
2023/06/06 08:27:13;;;;;;;;;;;;;;;20.69;47.22;92761.47;2059194;69;20175;-78
2023/06/06 08:29:38;;;;;;;;;;;;;;;21.43;47.62;92754.56;2059335;69;20050;-79
2023/06/06 08:32:04;;;;;;;;;;;;;;;22.01;48.39;92763.63;2059480;69;20415;-78
2023/06/06 08:34:30;;;;;;;;;;;;;;;22.15;45.72;92748.88;2059685;69;20125;-79
2023/06/06 08:36:55;;;;;;;;;;;;;;;22.13;45.41;92743.13;2059518;69;20090;-78
2023/06/06 08:39:21;;;;;;;;;;;;;;;22.41;45.26;92745.78;2059500;69;20634;-78
2023/06/06 08:41:50;;;;;;;;;;;;;;;22.77;46.63;92739.16;2059465;69;20058;-77
2023/06/06 08:44:23;;;;;;;;;;;;;;;22.60;45.73;92737.47;2059117;69;20103;-77
2023/06/06 08:46:51;;;;;;;;;;;;;;;23.06;45.01;92743.97;2072557;69;20138;-78
2023/06/06 08:49:18;;;;;;;;;;;;;;;23.33;43.85;92742.22;2059229;69;20058;-78
2023/06/06 08:51:44;;;;;;;;;;;;;;;23.59;45.43;92738.97;2059461;69;20495;-77
2023/06/06 08:54:11;;;;;;;;;;;;;;;24.32;41.83;92738.38;2059507;69;20069;-79
2023/06/06 08:56:37;;;;;;;;;;;;;;;23.63;44.11;92737.56;2059377;69;20404;-78
2023/06/06 08:59:04;;;;;;;;;;;;;;;23.97;42.52;92743.78;2059703;69;20053;-79
2023/06/06 09:01:30;;;;;;;;;;;;;;;23.69;43.34;92734.81;2059709;69;20070;-79
2023/06/06 09:03:56;;;;;;;;;;;;;;;24.68;41.75;92740.19;2072929;69;20127;-79
2023/06/06 09:06:22;;;;;;;;;;;;;;;25.06;41.34;92734.00;2059945;69;20094;-79
2023/06/06 09:08:49;;;;;;;;;;;;;;;24.65;38.21;92732.94;2059994;69;20541;-79
2023/06/06 09:11:17;;;;;;;;;;;;;;;25.42;41.04;92735.72;2060013;69;20057;-77
2023/06/06 09:13:43;;;;;;;;;;;;;;;25.40;38.77;92735.72;2060187;69;20123;-77
2023/06/06 09:16:09;;;;;;;;;;;;;;;24.72;38.70;92732.31;2059960;69;20137;-77
2023/06/06 09:18:38;;;;;;;;;;;;;;;25.67;39.95;92725.06;2059638;69;20057;-77
2023/06/06 09:21:06;;;;;;;;;;;;;;;26.58;38.46;92724.66;2059991;69;20417;-77
2023/06/06 09:23:34;;;;;;;;;;;;;;;26.61;36.95;92718.16;2060159;69;20074;-78
2023/06/06 09:26:00;;;;;;;;;;;;;;;27.01;37.30;92719.63;2059949;69;20304;-77
2023/06/06 09:28:38;;;;;;;;;;;;;;;26.84;37.86;92718.16;2060056;69;20530;-78
2023/06/06 09:31:26;;;;;;;;;;;;;;;27.62;38.10;92727.50;2060122;69;20054;-78
2023/06/06 09:33:55;;;;;;;;;;;;;;;28.08;33.95;92723.03;2060085;69;20050;-77
2023/06/06 09:36:27;;;;;;;;;;;;;;;28.11;33.62;92719.38;2059971;69;20161;-78
2023/06/06 09:38:54;;;;;;;;;;;;;;;28.40;32.86;92715.66;2072447;69;20046;-78
2023/06/06 09:41:21;;;;;;;;;;;;;;;28.62;32.44;92715.50;2059978;69;20050;-79
2023/06/06 09:43:47;;;;;;;;;;;;;;;29.00;33.33;92708.00;2070254;69;20049;-78
2023/06/06 09:46:16;;;;;;;;;;;;;;;29.50;33.60;92706.81;2059529;69;20057;-79
2023/06/06 09:48:42;;;;;;;;;;;;;;;29.48;31.49;92701.06;2059880;69;20053;-80
2023/06/06 09:51:12;;;;;;;;;;;;;;;29.62;30.61;92714.72;2059602;69;20054;-80
2023/06/06 09:53:37;;;;;;;;;;;;;;;29.83;28.11;92710.16;2060000;69;20485;-80
2023/06/06 09:56:04;;;;;;;;;;;;;;;29.07;29.37;92701.44;2059939;69;20125;-79
2023/06/06 09:58:32;;;;;;;;;;;;;;;28.41;28.16;92696.81;2059837;69;20050;-78
2023/06/06 10:00:58;;;;;;;;;;;;;;;29.31;28.62;92697.59;2059714;69;20069;-78
2023/06/06 10:03:24;;;;;;;;;;;;;;;28.57;26.87;92693.84;2059652;69;20050;-78
2023/06/06 10:05:50;;;;;;;;;;;;;;;28.80;28.01;92694.41;2059744;69;20058;-78
2023/06/06 10:08:21;;;;;;;;;;;;;;;28.82;27.12;92691.50;2060021;69;20054;-77
2023/06/06 10:10:48;;;;;;;;;;;;;;;30.23;26.83;92690.81;2059732;69;20050;-75
2023/06/06 10:13:15;;;;;;;;;;;;;;;30.82;25.31;92689.28;2060155;69;20144;-78
2023/06/06 10:15:40;;;;;;;;;;;;;;;30.38;24.21;92686.25;2059782;69;20077;-78
2023/06/06 10:18:07;;;;;;;;;;;;;;;30.71;24.53;92688.72;2060016;69;20049;-78
2023/06/06 10:20:33;;;;;;;;;;;;;;;32.09;24.68;92690.69;2059820;69;20056;-78
2023/06/06 10:23:00;;;;;;;;;;;;;;;30.82;25.58;92689.28;2059824;69;20057;-79
2023/06/06 10:25:26;;;;;;;;;;;;;;;28.88;27.13;92685.66;2059875;69;20046;-79
2023/06/06 10:28:04;;;;;;;;;;;;;;;30.23;24.48;92682.09;2072851;69;20046;-77
2023/06/06 10:30:45;;;;;;;;;;;;;;;31.04;25.32;92671.47;2059729;69;20421;-78
2023/06/06 10:33:33;;;;;;;;;;;;;;;31.53;23.76;92675.75;2059856;69;20139;-77
2023/06/06 10:36:02;;;;;;;;;;;;;;;33.07;22.23;92676.91;2059772;69;20050;-79
2023/06/06 10:38:27;;;;;;;;;;;;;;;32.70;22.72;92671.91;2059918;69;20061;-78
2023/06/06 10:40:54;;;;;;;;;;;;;;;34.24;19.65;92674.59;2060018;69;20132;-78
2023/06/06 10:43:46;;;;;;;;;;;;;;;34.41;19.28;92672.63;2059879;69;20105;-77
2023/06/06 10:46:12;;;;;;;;;;;;;;;38.27;17.26;92679.03;2057830;69;20105;-78
2023/06/06 10:48:38;;;;;;;;;;;;;;;37.78;18.89;92672.34;2059717;69;20085;-78
2023/06/06 10:54:33;;;;;;;;;;;;;;;32.72;21.47;92657.31;2059615;69;20111;-79
2023/06/06 10:56:59;;;;;;;;;;;;;;;31.33;24.68;92654.28;2059742;69;20057;-79
2023/06/06 10:59:28;;;;;;;;;;;;;;;32.99;20.34;92651.59;2059895;69;20046;-78
2023/06/06 11:01:54;;;;;;;;;;;;;;;35.80;18.91;92660.13;2059919;69;20131;-78
2023/06/06 11:04:27;;;;;;;;;;;;;;;33.98;19.67;92653.41;2059775;69;20122;-78
2023/06/06 11:07:00;;;;;;;;;;;;;;;33.60;20.45;92650.03;2059743;69;20046;-76
2023/06/06 11:09:31;;;;;;;;;;;;;;;38.31;17.76;92661.97;2072598;69;20386;-77
2023/06/06 11:12:18;;;;;;;;;;;;;;;40.72;16.82;92664.09;2059769;69;20086;-77
2023/06/06 11:14:54;;;;;;;;;;;;;;;41.53;15.25;92668.44;2067361;69;20149;-77
2023/06/06 11:17:21;;;;;;;;;;;;;;;41.03;13.98;92666.81;2072668;69;20115;-77
2023/06/06 11:19:50;;;;;;;;;;;;;;;40.14;14.04;92643.56;2059728;69;20554;-77
2023/06/06 11:22:20;;;;;;;;;;;;;;;43.29;14.63;92654.81;2059465;69;20674;-77
2023/06/06 11:24:45;;;;;;;;;;;;;;;43.60;12.39;92651.31;2072685;69;20054;-77
2023/06/06 11:27:11;;;;;;;;;;;;;;;41.39;14.41;92645.63;2059728;69;20046;-77
2023/06/06 11:29:37;;;;;;;;;;;;;;;40.44;14.25;92646.41;2059481;69;20560;-77
2023/06/06 11:32:03;;;;;;;;;;;;;;;41.10;13.80;92647.25;2059703;69;20058;-78
2023/06/06 11:34:32;;;;;;;;;;;;;;;40.48;15.47;92648.44;2059643;69;20046;-78
2023/06/06 11:36:58;;;;;;;;;;;;;;;40.79;13.90;92648.22;2059695;69;20428;-77
2023/06/06 11:39:26;;;;;;;;;;;;;;;38.07;15.66;92633.63;2059279;69;20042;-78
2023/06/06 11:41:52;;;;;;;;;;;;;;;43.96;13.35;92638.56;2060106;69;20077;-77
2023/06/06 11:44:17;;;;;;;;;;;;;;;44.92;11.31;92637.16;2059768;69;20101;-78
2023/06/06 11:46:47;;;;;;;;;;;;;;;47.22;11.81;92637.56;2072604;69;20137;-77
2023/06/06 11:49:15;;;;;;;;;;;;;;;43.52;12.05;92627.44;2059726;69;20156;-79
2023/06/06 11:51:41;;;;;;;;;;;;;;;44.27;12.30;92622.38;2059702;69;20175;-79
2023/06/06 11:54:17;;;;;;;;;;;;;;;47.63;11.52;92631.28;2059929;69;20136;-78
2023/06/06 11:56:43;;;;;;;;;;;;;;;43.78;11.72;92601.94;2059664;69;20050;-78
2023/06/06 11:59:10;;;;;;;;;;;;;;;41.79;13.47;92597.56;2072241;69;20070;-78
2023/06/06 12:01:36;;;;;;;;;;;;;;;42.30;13.26;92589.25;2059576;69;20045;-79
2023/06/06 12:04:04;;;;;;;;;;;;;;;39.03;14.41;92579.19;2059700;69;20415;-79
2023/06/06 12:06:30;;;;;;;;;;;;;;;38.38;15.09;92591.81;2072740;69;20122;-78
2023/06/06 12:08:56;;;;;;;;;;;;;;;40.07;14.54;92595.25;2059620;69;20050;-79
2023/06/06 12:11:21;;;;;;;;;;;;;;;38.45;14.80;92598.84;2059880;69;20056;-79
2023/06/06 12:13:47;;;;;;;;;;;;;;;32.91;18.81;92581.09;2059336;69;20492;-79
2023/06/06 12:16:12;;;;;;;;;;;;;;;32.21;20.04;92579.78;2071807;69;20046;-78
2023/06/06 12:18:48;;;;;;;;;;;;;;;31.88;20.07;92582.69;2059277;69;20554;-78
2023/06/06 12:21:16;;;;;;;;;;;;;;;30.16;22.66;92576.25;2059370;69;20050;-80
2023/06/06 12:23:43;;;;;;;;;;;;;;;33.07;22.07;92578.47;2072595;69;20066;-81
2023/06/06 12:26:11;;;;;;;;;;;;;;;33.30;20.13;92575.69;2059734;69;20053;-79
2023/06/06 12:28:59;;;;;;;;;;;;;;;32.18;20.52;92575.47;2059562;69;20100;-81
2023/06/06 12:31:27;;;;;;;;;;;;;;;32.79;20.56;92576.97;2059717;69;20489;-81
2023/06/06 12:33:58;;;;;;;;;;;;;;;31.74;19.93;92574.22;2072890;69;20046;-78
2023/06/06 12:36:25;;;;;;;;;;;;;;;30.55;21.86;92581.44;2060165;69;20018;-77
2023/06/06 12:38:58;;;;;;;;;;;;;;;30.69;21.95;92577.59;2060026;69;20520;-79
2023/06/06 12:41:42;;;;;;;;;;;;;;;30.04;22.36;92565.50;2060038;69;20057;-78
2023/06/06 12:44:09;;;;;;;;;;;;;;;30.77;22.15;92565.88;2059944;69;20492;-77
2023/06/06 12:46:37;;;;;;;;;;;;;;;29.91;22.26;92567.13;2059878;69;20050;-77
2023/06/06 12:49:03;;;;;;;;;;;;;;;29.61;22.24;92560.28;2059669;69;20042;-76
2023/06/06 12:51:28;;;;;;;;;;;;;;;30.06;23.23;92565.47;2059956;69;20489;-76
2023/06/06 12:53:54;;;;;;;;;;;;;;;29.94;22.29;92564.94;2073118;69;20133;-77
2023/06/06 12:56:20;;;;;;;;;;;;;;;28.15;23.76;92565.28;2059848;69;20057;-77
2023/06/06 12:58:46;;;;;;;;;;;;;;;28.40;25.00;92562.22;2059512;69;20050;-79
2023/06/06 13:01:12;;;;;;;;;;;;;;;28.21;24.52;92555.84;2059823;69;20483;-78
2023/06/06 13:03:38;;;;;;;;;;;;;;;29.58;23.72;92552.34;2059673;69;20093;-78